Time;durP1;ratioP1;P1;durP2;ratioP2;P2;SDS_P1;SDS_P2;PMS_P1;PMS_P2;Temp;Humidity;BMP_temperature;BMP_pressure;BME280_temperature;BME280_humidity;BME280_pressure;Samples;Min_cycle;Max_cycle;Signal;HPM_P1;HPM_P2
2021/01/26 00:00:22;;;;;;;10.98;5.92;;;;;;;20.35;62.98;150619.52;1799757;79;21452;-61
2021/01/26 00:02:54;;;;;;;9.63;5.67;;;;;;;20.45;64.87;120513.33;1775807;79;21733;-61
2021/01/26 00:05:26;;;;;;;10.08;5.65;;;;;;;20.41;63.07;149058.78;1773651;79;21174;-61
2021/01/26 00:07:59;;;;;;;8.98;6.05;;;;;;;20.57;62.83;152717.78;1773879;79;21143;-59
2021/01/26 00:10:31;;;;;;;11.65;5.15;;;;;;;20.74;62.45;155437.13;1792068;79;21171;-60
2021/01/26 00:13:05;;;;;;;12.70;5.42;;;;;;;20.69;62.91;151862.41;1789852;79;21796;-60
2021/01/26 00:15:38;;;;;;;10.58;6.08;;;;;;;20.75;62.17;156334.03;1779682;79;21245;-60
2021/01/26 00:18:10;;;;;;;8.50;5.97;;;;;;;20.59;63.10;150718.77;1788846;79;21191;-60
2021/01/26 00:20:44;;;;;;;8.00;5.85;;;;;;;20.34;63.31;145282.81;1812663;79;21338;-60
2021/01/26 00:23:17;;;;;;;10.20;5.70;;;;;;;20.37;62.27;155290.78;1813858;79;21286;-60
2021/01/26 00:25:49;;;;;;;8.80;5.12;;;;;;;20.31;63.33;145075.89;1811820;79;21638;-60
2021/01/26 00:28:21;;;;;;;6.42;4.72;;;;;;;20.19;63.19;146472.56;1783995;79;21348;-60
2021/01/26 00:30:54;;;;;;;7.40;4.92;;;;;;;20.35;62.97;150038.45;1788758;79;21162;-60
2021/01/26 00:33:26;;;;;;;8.23;5.17;;;;;;;20.44;62.81;151808.28;1811597;79;21329;-67
2021/01/26 00:35:58;;;;;;;11.08;5.47;;;;;;;20.36;62.53;153612.91;1810088;79;21206;-68
2021/01/26 00:38:31;;;;;;;9.85;5.50;;;;;;;20.19;65.81;95265.66;1811261;79;21340;-67
2021/01/26 00:41:03;;;;;;;7.78;5.50;;;;;;;20.18;65.96;91277.99;1794869;79;21356;-69
2021/01/26 00:43:35;;;;;;;7.42;4.60;;;;;;;20.30;64.41;128528.27;1788503;79;21135;-68
2021/01/26 00:46:08;;;;;;;10.13;5.58;;;;;;;20.21;64.00;133733.08;1808374;79;21183;-69
2021/01/26 00:48:40;;;;;;;8.48;4.90;;;;;;;20.22;63.80;139170.33;1782098;79;21164;-70
2021/01/26 00:51:13;;;;;;;7.28;5.05;;;;;;;20.35;62.98;149251.75;1788337;79;21356;-69
2021/01/26 00:53:46;;;;;;;10.53;4.55;;;;;;;20.85;63.45;144696.25;1781876;80;21832;-69
2021/01/26 00:56:19;;;;;;;7.60;4.83;;;;;;;20.73;62.40;154327.75;1784255;79;21305;-69
2021/01/26 00:58:51;;;;;;;6.22;4.78;;;;;;;20.66;62.81;151018.06;1787558;79;21349;-68
2021/01/26 01:01:24;;;;;;;9.15;4.97;;;;;;;20.49;62.38;153959.31;1798208;79;21206;-68
2021/01/26 01:03:57;;;;;;;7.92;5.33;;;;;;;20.40;62.34;154127.53;1776128;79;21128;-69
2021/01/26 01:06:30;;;;;;;8.95;4.78;;;;;;;20.37;64.01;132174.06;1803661;79;21377;-69
2021/01/26 01:09:03;;;;;;;7.55;5.37;;;;;;;20.51;63.37;144260.38;1784412;79;21376;-69
2021/01/26 01:11:35;;;;;;;11.38;5.28;;;;;;;20.44;63.17;146641.45;1782212;79;21816;-69
2021/01/26 01:14:08;;;;;;;4.87;3.67;;;;;;;19.89;64.54;121394.05;1781991;79;21198;-68
2021/01/26 01:16:41;;;;;;;2.52;2.12;;;;;;;18.78;71.87;30308.39;1786354;79;21166;-68
2021/01/26 01:19:13;;;;;;;2.25;1.90;;;;;;;26.40;100.00;158092.77;1804270;79;21353;-68
2021/01/26 01:21:47;;;;;;;2.50;1.85;;;;;;;24.05;63.91;157464.78;1794345;79;21147;-68
2021/01/26 01:24:19;;;;;;;3.55;2.10;;;;;;;34.37;100.00;160229.63;1801131;79;21143;-69
2021/01/26 01:26:53;;;;;;;2.33;1.95;;;;;;;28.63;58.90;158690.00;1791076;79;21296;-67
2021/01/26 01:29:30;;;;;;;4.33;1.90;;;;;;;26.94;65.50;158236.31;1789439;79;21379;-69
2021/01/26 01:32:02;;;;;;;1.65;1.40;;;;;;;26.15;68.26;158025.03;1789808;79;21155;-68
2021/01/26 01:34:34;;;;;;;1.45;1.35;;;;;;;26.37;59.08;158083.47;1802029;79;21218;-69
2021/01/26 01:37:07;;;;;;;1.22;0.90;;;;;;;25.85;49.16;157945.31;1798282;79;21351;-68
2021/01/26 01:39:39;;;;;;;1.52;1.40;;;;;;;26.49;47.24;158116.72;1816440;79;21308;-69
2021/01/26 01:42:12;;;;;;;1.87;1.37;;;;;;;26.02;45.85;157991.78;1816621;79;21300;-68
2021/01/26 01:44:44;;;;;;;1.42;1.00;;;;;;;24.56;46.61;157601.44;1787933;79;21163;-68
2021/01/26 01:47:29;;;;;;;1.47;1.20;;;;;;;24.02;46.64;157458.11;1788219;79;21317;-69
2021/01/26 01:50:03;;;;;;;1.00;0.90;;;;;;;23.75;46.57;157385.14;1810459;79;21345;-68
2021/01/26 01:52:35;;;;;;;1.32;1.02;;;;;;;23.99;45.81;157448.84;1787224;80;21391;-68
2021/01/26 01:55:14;;;;;;;1.32;1.22;;;;;;;23.05;46.04;157198.28;1788188;79;21175;-68
2021/01/26 01:57:58;;;;;;;0.90;0.90;;;;;;;22.81;46.24;157135.94;1804473;79;21167;-68
2021/01/26 02:00:30;;;;;;;1.70;1.20;;;;;;;23.44;45.53;157302.97;1798528;79;21293;-68
2021/01/26 02:03:12;;;;;;;1.40;1.00;;;;;;;23.14;45.94;157222.12;1787726;80;21347;-68
2021/01/26 02:05:46;;;;;;;1.30;1.15;;;;;;;22.31;46.91;157000.81;1800930;79;21163;-68
2021/01/26 02:08:23;;;;;;;1.40;1.30;;;;;;;22.63;46.09;157086.91;1816396;79;21171;-68
2021/01/26 02:10:56;;;;;;;1.60;1.22;;;;;;;22.04;46.82;156929.28;1814265;78;21143;-68
2021/01/26 02:13:28;;;;;;;1.37;1.20;;;;;;;21.86;47.00;156881.66;1803309;79;21170;-70
2021/01/26 02:16:02;;;;;;;1.27;1.17;;;;;;;21.75;48.51;156851.19;1813605;79;21222;-68
2021/01/26 02:19:15;;;;;;;1.92;1.25;;;;;;;20.62;49.54;156550.73;1808821;78;21316;-67
2021/01/26 02:22:18;;;;;;;0.93;0.90;;;;;;;21.54;48.28;156795.56;1735206;82;21432;-69
2021/01/26 02:25:30;;;;;;;1.57;1.05;;;;;;;20.07;53.15;156405.31;1708669;84;21370;-68
2021/01/26 02:28:33;;;;;;;2.22;1.30;;;;;;;20.20;57.38;156441.00;1806442;78;21202;-68
2021/01/26 02:31:49;;;;;;;1.67;1.30;;;;;;;19.44;55.12;156238.75;1802711;79;21875;-68
2021/01/26 02:34:41;;;;;;;2.20;1.70;;;;;;;19.51;54.56;156257.28;1801464;79;21344;-68
2021/01/26 02:37:42;;;;;;;2.45;1.92;;;;;;;19.62;57.50;156286.34;1787502;80;21522;-68
2021/01/26 02:40:48;;;;;;;2.33;2.08;;;;;;;21.63;50.35;156820.77;1726095;82;21710;-68
2021/01/26 02:43:45;;;;;;;3.05;2.20;;;;;;;21.34;49.98;156743.94;1787767;79;21265;-70
2021/01/26 02:46:45;;;;;;;3.08;1.98;;;;;;;20.30;50.60;156467.48;1800779;79;21334;-68
2021/01/26 02:49:35;;;;;;;2.58;1.92;;;;;;;19.93;51.17;156368.25;1807903;79;21170;-69
2021/01/26 02:52:23;;;;;;;4.12;3.15;;;;;;;20.15;51.68;156427.80;1765593;78;21324;-68
2021/01/26 02:55:34;;;;;;;4.12;2.50;;;;;;;20.59;50.64;156542.84;1787445;79;21182;-68
2021/01/26 02:58:20;;;;;;;3.80;2.67;;;;;;;18.90;57.33;156093.42;1796461;79;21320;-67
2021/01/26 03:00:55;;;;;;;4.53;2.55;;;;;;;19.18;63.58;156168.75;1818733;79;21395;-69
2021/01/26 03:03:39;;;;;;;4.95;2.75;;;;;;;35.55;100.00;160545.25;1807176;79;21796;-69
2021/01/26 03:06:22;;;;;;;4.47;3.00;;;;;;;32.05;75.73;159604.44;1786849;79;21613;-69
2021/01/26 03:09:02;;;;;;;5.75;3.33;;;;;;;24.99;48.42;157716.89;1789670;79;21793;-68
2021/01/26 03:11:58;;;;;;;6.37;4.22;;;;;;;22.48;50.17;157047.22;1787796;79;21336;-68
2021/01/26 03:14:49;;;;;;;5.28;3.52;;;;;;;23.04;49.63;157195.56;1804341;79;21566;-67
2021/01/26 03:17:27;;;;;;;;;;;;;;;22.50;100.00;157052.52;1821877;79;21328;-67
2021/01/26 03:20:03;;;;;;;5.70;3.58;;;;;;;22.29;79.92;156996.80;1783449;79;20583;-68
2021/01/26 03:22:35;;;;;;;6.83;5.05;;;;;;;20.82;54.90;156603.73;1800521;78;21285;-68
2021/01/26 03:25:08;;;;;;;9.78;5.03;;;;;;;21.35;53.07;156745.28;1806183;79;21347;-68
2021/01/26 03:27:43;;;;;;;6.70;4.15;;;;;;;21.36;53.57;156747.89;1810680;79;21361;-68
2021/01/26 03:30:19;;;;;;;8.18;5.60;;;;;;;21.30;52.10;156733.33;1818839;79;21364;-67
2021/01/26 03:32:55;;;;;;;7.70;4.83;;;;;;;21.60;50.90;156811.47;1816691;79;21210;-68
2021/01/26 03:35:29;;;;;;;7.08;4.45;;;;;;;21.55;51.01;156798.20;1795607;79;21198;-67
2021/01/26 03:38:23;;;;;;;7.00;4.72;;;;;;;20.59;50.55;156544.14;1790689;79;21182;-68
2021/01/26 03:40:56;;;;;;;10.35;5.55;;;;;;;20.81;52.03;156601.08;1809098;79;21368;-68
2021/01/26 03:43:28;;;;;;;8.40;4.45;;;;;;;20.61;51.04;156548.09;1814328;79;21163;-67
2021/01/26 03:46:08;;;;;;;9.55;5.78;;;;;;;19.92;50.91;156364.31;1812405;79;21355;-67
2021/01/26 03:48:55;;;;;;;7.33;4.90;;;;;;;20.77;51.48;156590.44;1819317;79;21198;-67
2021/01/26 03:52:11;;;;;;;9.13;5.25;;;;;;;20.52;51.17;156525.66;1814655;79;21281;-68
2021/01/26 03:54:51;;;;;;;9.60;5.28;;;;;;;19.84;50.37;156343.17;1788252;79;21305;-68
2021/01/26 03:57:37;;;;;;;11.73;5.85;;;;;;;19.79;50.84;156331.23;1799067;79;21320;-67
2021/01/26 04:00:33;;;;;;;8.23;4.83;;;;;;;19.76;51.34;156323.34;1815586;79;21344;-67
2021/01/26 04:03:15;;;;;;;11.43;6.22;;;;;;;19.17;51.23;156167.45;1788704;79;21158;-68
2021/01/26 04:05:58;;;;;;;10.80;6.55;;;;;;;19.66;68.89;156296.92;1794190;79;21851;-68
2021/01/26 04:08:44;;;;;;;12.25;5.85;;;;;;;19.73;55.84;156315.41;1796012;79;21182;-69
2021/01/26 04:11:55;;;;;;;8.58;5.05;;;;;;;19.36;54.97;156216.33;1818869;79;21728;-68
2021/01/26 04:14:31;;;;;;;10.30;6.47;;;;;;;19.01;54.78;156123.81;1816733;79;21710;-68
2021/01/26 04:17:25;;;;;;;12.18;6.60;;;;;;;19.00;53.55;156121.17;1816404;78;21677;-68
2021/01/26 04:20:05;;;;;;;9.80;5.62;;;;;;;18.28;54.22;155931.05;1785721;79;21834;-69
2021/01/26 04:22:38;;;;;;;11.38;6.17;;;;;;;18.90;53.76;156094.77;1797409;78;21392;-68
2021/01/26 04:25:36;;;;;;;10.70;6.28;;;;;;;18.32;53.52;155941.63;1784092;79;21343;-68
2021/01/26 04:28:28;;;;;;;8.85;5.80;;;;;;;18.92;53.00;156100.06;1792853;79;21340;-72
2021/01/26 04:31:00;;;;;;;13.05;6.20;;;;;;;19.45;51.96;156241.39;1811481;79;21280;-66
2021/01/26 04:33:33;;;;;;;10.85;6.08;;;;;;;18.96;51.73;156110.59;1813537;79;21242;-65
2021/01/26 04:36:07;;;;;;;12.20;6.97;;;;;;;18.48;52.66;155983.83;1782649;79;21198;-68
2021/01/26 04:38:39;;;;;;;15.25;7.50;;;;;;;19.12;51.66;156152.92;1781664;80;21222;-68
2021/01/26 04:41:33;;;;;;;12.20;6.12;;;;;;;19.01;51.30;156122.47;1784823;79;21206;-68
2021/01/26 04:44:37;;;;;;;10.53;6.90;;;;;;;18.56;51.02;156003.64;1802622;79;21135;-67
2021/01/26 04:47:22;;;;;;;11.88;6.17;;;;;;;19.29;50.24;156197.81;1813293;79;21277;-77
2021/01/26 04:50:24;;;;;;;12.10;6.83;;;;;;;19.09;50.07;156146.28;1813256;79;21317;-66
2021/01/26 04:53:17;;;;;;;12.60;6.80;;;;;;;18.80;50.31;156068.38;1787659;79;21325;-67
2021/01/26 04:56:28;;;;;;;12.93;6.78;;;;;;;19.25;50.12;156188.56;1787042;79;21391;-72
2021/01/26 04:59:13;;;;;;;;;;;;;;;19.62;49.50;156284.98;1810863;79;21194;-69
2021/01/26 05:01:50;;;;;;;10.08;5.40;;;;;;;19.45;49.69;156240.09;1805410;79;20323;-70
2021/01/26 05:04:26;;;;;;;10.38;5.97;;;;;;;19.09;49.70;156144.94;1803246;79;21215;-72
2021/01/26 05:07:06;;;;;;;9.90;5.92;;;;;;;19.57;48.87;156273.09;1806864;78;21852;-67
2021/01/26 05:09:58;;;;;;;8.85;5.87;;;;;;;20.11;49.26;156417.22;1811168;79;21361;-73
2021/01/26 05:12:34;;;;;;;11.08;6.83;;;;;;;19.55;48.50;156267.86;1771470;81;21233;-67
2021/01/26 05:15:08;;;;;;;10.10;4.72;;;;;;;19.96;48.32;156376.25;1751633;81;21976;-67
2021/01/26 05:17:48;;;;;;;10.58;5.37;;;;;;;19.29;47.37;156199.16;1728728;81;21846;-70
2021/01/26 05:20:28;;;;;;;10.90;6.60;;;;;;;19.58;47.73;156274.45;1719100;81;21365;-70
2021/01/26 05:23:11;;;;;;;8.53;5.17;;;;;;;19.61;47.65;156283.69;1749215;82;21818;-70
2021/01/26 05:25:44;;;;;;;13.83;6.28;;;;;;;19.28;47.87;156195.16;1754626;80;21642;-71
2021/01/26 05:28:18;;;;;;;9.90;5.47;;;;;;;18.81;48.79;156069.66;1801032;78;21360;-69
2021/01/26 05:30:57;;;;;;;8.40;5.10;;;;;;;19.38;48.17;156222.91;1801889;78;21384;-73
2021/01/26 05:33:24;;;;;;;7.50;4.70;;;;;;;18.94;48.83;156105.30;1789632;79;21817;-73
2021/01/26 05:35:57;;;;;;;6.87;4.37;;;;;;;18.87;47.95;156085.48;1802430;79;21337;-68
2021/01/26 05:38:30;;;;;;;8.40;5.10;;;;;;;18.44;48.65;155973.31;1801708;78;21167;-72
2021/01/26 05:41:06;;;;;;;8.18;5.12;;;;;;;18.37;50.19;155953.50;1802524;79;21148;-67
2021/01/26 05:43:38;;;;;;;8.15;4.92;;;;;;;18.51;48.87;155991.77;1799334;79;21821;-63
2021/01/26 05:46:11;;;;;;;8.78;4.67;;;;;;;18.83;49.28;156076.25;1801746;79;21305;-73
2021/01/26 05:48:48;;;;;;;7.83;4.22;;;;;;;18.53;48.96;155995.70;1788690;79;21423;-73
2021/01/26 05:51:26;;;;;;;7.75;4.55;;;;;;;18.11;48.51;155886.11;1803197;79;21729;-70
2021/01/26 05:54:08;;;;;;;8.65;5.12;;;;;;;19.14;47.38;156159.52;1800905;79;21159;-71
2021/01/26 05:56:54;;;;;;;10.03;4.85;;;;;;;19.24;47.26;156184.63;1801431;78;21207;-75
2021/01/26 05:59:33;;;;;;;6.50;4.03;;;;;;;18.76;47.98;156056.44;1798964;78;21155;-75
2021/01/26 06:02:23;;;;;;;9.35;3.62;;;;;;;18.73;49.24;156048.56;1800401;78;21207;-76
2021/01/26 06:04:57;;;;;;;5.65;4.22;;;;;;;18.81;47.96;156069.66;1801628;79;21293;-69
2021/01/26 06:07:29;;;;;;;7.60;4.30;;;;;;;18.67;47.88;156032.69;1749269;79;21324;-70
2021/01/26 06:10:02;;;;;;;6.37;3.62;;;;;;;18.45;47.76;155974.61;1784090;79;21313;-73
2021/01/26 06:12:35;;;;;;;6.25;3.83;;;;;;;18.88;47.73;156088.13;1740144;81;21210;-74
2021/01/26 06:15:09;;;;;;;7.85;4.12;;;;;;;18.80;47.89;156068.38;1795362;79;21214;-69
2021/01/26 06:17:42;;;;;;;7.53;3.80;;;;;;;18.83;47.52;156074.95;1802691;79;21662;-68
2021/01/26 06:20:25;;;;;;;5.95;3.33;;;;;;;18.77;47.70;156060.44;1804112;79;21163;-68
2021/01/26 06:22:57;;;;;;;5.28;3.50;;;;;;;18.51;47.12;155991.77;1813188;78;21724;-69
2021/01/26 06:25:34;;;;;;;8.23;4.08;;;;;;;19.04;46.98;156133.05;1765419;79;21180;-70
2021/01/26 06:28:25;;;;;;;6.85;3.15;;;;;;;18.57;49.60;156007.64;1789699;79;21238;-69
2021/01/26 06:31:24;;;;;;;6.00;3.05;;;;;;;18.26;47.21;155925.77;1818388;79;21351;-70
2021/01/26 06:34:24;;;;;;;3.22;2.83;;;;;;;18.58;48.47;156008.94;1795087;79;21167;-70
2021/01/26 06:37:36;;;;;;;5.15;2.80;;;;;;;18.28;46.81;155929.75;1800272;79;21167;-71
2021/01/26 06:40:34;;;;;;;8.53;2.67;;;;;;;18.00;47.26;155855.78;1805925;79;21162;-71
2021/01/26 06:43:23;;;;;;;5.75;2.60;;;;;;;18.02;46.87;155861.08;1800557;79;21166;-70
2021/01/26 06:46:38;;;;;;;4.53;2.65;;;;;;;18.01;46.97;155858.42;1815368;79;21217;-71
2021/01/26 06:50:03;;;;;;;4.60;2.52;;;;;;;17.89;47.39;155825.41;1787441;80;21255;-70
2021/01/26 06:53:09;;;;;;;5.78;2.98;;;;;;;18.44;47.56;155971.95;1787030;80;21238;-71
2021/01/26 06:56:02;;;;;;;7.33;3.10;;;;;;;18.04;48.00;155866.36;1790598;79;21673;-70
2021/01/26 06:59:12;;;;;;;6.45;2.47;;;;;;;18.22;47.33;155913.89;1804992;79;21367;-67
2021/01/26 07:02:29;;;;;;;4.97;2.72;;;;;;;18.00;47.08;155855.78;1801538;79;21305;-71
2021/01/26 07:05:23;;;;;;;4.50;2.50;;;;;;;17.89;47.46;155826.75;1819513;79;21175;-70
2021/01/26 07:08:18;;;;;;;5.33;2.45;;;;;;;17.94;47.48;155839.92;1799001;79;21673;-72
2021/01/26 07:11:15;;;;;;;3.83;2.52;;;;;;;17.95;47.30;155841.28;1819377;79;21158;-70
2021/01/26 07:14:11;;;;;;;3.90;2.55;;;;;;;17.77;47.68;155793.75;1818141;79;21430;-71
2021/01/26 07:17:02;;;;;;;5.85;2.60;;;;;;;17.47;48.53;155714.63;1811555;79;21352;-70
2021/01/26 07:19:58;;;;;;;4.20;2.70;;;;;;;17.95;47.68;155842.56;1811651;79;21352;-72
2021/01/26 07:22:53;;;;;;;3.17;2.33;;;;;;;17.71;47.81;155779.23;1787243;80;21411;-68
2021/01/26 07:25:52;;;;;;;6.95;2.87;;;;;;;17.95;47.88;155841.28;1779644;79;21318;-70
2021/01/26 07:28:45;;;;;;;4.65;2.70;;;;;;;18.65;47.08;156028.75;1805200;79;21372;-71
2021/01/26 07:31:38;;;;;;;4.55;2.65;;;;;;;18.03;47.74;155862.38;1804994;79;21305;-71
2021/01/26 07:34:24;;;;;;;3.80;2.30;;;;;;;17.75;47.48;155788.52;1773594;81;21301;-71
2021/01/26 07:37:28;;;;;;;3.95;2.50;;;;;;;18.27;47.36;155927.11;1760638;81;21139;-71
2021/01/26 07:40:32;;;;;;;4.85;2.60;;;;;;;18.19;46.94;155905.91;1774998;79;21710;-71
2021/01/26 07:43:18;;;;;;;3.85;1.95;;;;;;;18.00;47.38;155855.78;1797548;79;21293;-70
2021/01/26 07:46:15;;;;;;;4.00;2.30;;;;;;;17.52;47.62;155727.84;1797422;79;21887;-71
2021/01/26 07:49:16;;;;;;;3.33;2.25;;;;;;;18.25;47.34;155921.83;1783645;79;21162;-70
2021/01/26 07:51:56;;;;;;;3.62;2.33;;;;;;;17.68;47.46;155771.36;1773644;81;21211;-71
2021/01/26 07:54:59;;;;;;;3.83;2.35;;;;;;;18.72;46.48;156047.20;1797158;79;21801;-72
2021/01/26 07:57:38;;;;;;;3.20;2.00;;;;;;;18.15;47.83;155895.39;1771116;81;21314;-69
2021/01/26 08:00:12;;;;;;;8.05;2.15;;;;;;;18.17;46.72;155901.97;1786673;79;21210;-71
2021/01/26 08:02:46;;;;;;;3.37;2.27;;;;;;;18.55;46.32;156001.00;1779413;79;21293;-71
2021/01/26 08:05:19;;;;;;;4.47;2.08;;;;;;;18.09;46.31;155879.53;1783841;79;21155;-70
2021/01/26 08:07:51;;;;;;;3.10;1.92;;;;;;;18.34;47.83;155945.56;1792774;79;21356;-71
2021/01/26 08:10:25;;;;;;;4.30;2.15;;;;;;;18.00;46.54;155854.44;1762843;81;22493;-71
2021/01/26 08:12:57;;;;;;;3.05;2.08;;;;;;;18.48;46.55;155982.53;1773755;79;21167;-71
2021/01/26 08:15:34;;;;;;;4.08;2.25;;;;;;;19.09;45.81;156146.28;1773507;81;21182;-71
2021/01/26 08:18:24;;;;;;;3.95;2.40;;;;;;;18.77;46.29;156059.08;1773616;81;21198;-71
2021/01/26 08:20:56;;;;;;;3.98;2.17;;;;;;;18.46;46.08;155977.25;1792235;79;21253;-71
2021/01/26 08:23:30;;;;;;;2.52;1.70;;;;;;;18.50;46.01;155989.13;1805050;79;21690;-71
2021/01/26 08:26:18;;;;;;;4.97;2.10;;;;;;;18.62;46.29;156019.52;1818450;79;21344;-72
2021/01/26 08:28:50;;;;;;;4.20;1.82;;;;;;;18.48;45.75;155983.83;1787702;79;21253;-69
2021/01/26 08:31:32;;;;;;;4.97;2.10;;;;;;;18.62;46.39;156020.81;1788026;79;21355;-70
2021/01/26 08:34:27;;;;;;;2.70;1.82;;;;;;;17.63;47.05;155758.16;1787464;80;21391;-72
2021/01/26 08:37:15;;;;;;;3.90;2.35;;;;;;;17.13;47.54;155623.61;1787463;80;21174;-71
2021/01/26 08:39:50;;;;;;;3.02;1.85;;;;;;;17.78;47.22;155796.39;1787501;80;21396;-71
2021/01/26 08:42:55;;;;;;;3.70;2.27;;;;;;;18.61;45.79;156016.88;1787247;79;21174;-71
2021/01/26 08:45:33;;;;;;;4.10;2.10;;;;;;;18.08;46.66;155875.58;1787301;80;21306;-71
2021/01/26 08:48:27;;;;;;;2.95;2.30;;;;;;;17.88;46.51;155822.81;1807893;79;21285;-71
2021/01/26 08:51:07;;;;;;;3.58;1.60;;;;;;;17.69;46.69;155772.66;1787458;80;21465;-71
2021/01/26 08:53:40;;;;;;;3.90;1.80;;;;;;;17.75;47.04;155788.52;1787320;80;21178;-71
2021/01/26 08:56:28;;;;;;;2.05;1.42;;;;;;;18.15;46.35;155896.69;1794325;79;21366;-70
2021/01/26 08:59:01;;;;;;;4.55;1.60;;;;;;;17.34;47.22;155680.33;1812997;79;21191;-71
2021/01/26 09:01:40;;;;;;;2.05;1.65;;;;;;;17.37;46.76;155688.25;1818920;79;21391;-72
2021/01/26 09:04:20;;;;;;;2.42;2.00;;;;;;;18.26;46.59;155924.47;1819647;79;21308;-64
2021/01/26 09:06:54;;;;;;;2.83;1.32;;;;;;;18.04;46.03;155865.00;1817132;79;21792;-71
2021/01/26 09:09:34;;;;;;;2.22;1.70;;;;;;;17.35;45.89;155684.31;1819355;79;21258;-71
2021/01/26 09:12:08;;;;;;;2.37;1.40;;;;;;;17.83;45.59;155810.91;1819760;79;21352;-71
2021/01/26 09:14:51;;;;;;;2.67;1.72;;;;;;;18.04;45.99;155865.00;1816916;79;21403;-71
2021/01/26 09:17:27;;;;;;;2.62;1.50;;;;;;;17.31;45.99;155672.41;1801316;79;21210;-73
2021/01/26 09:20:16;;;;;;;2.17;1.40;;;;;;;17.50;46.08;155722.56;1817309;79;21186;-69
2021/01/26 09:22:48;;;;;;;2.77;1.95;;;;;;;16.76;46.57;155526.06;1819595;79;21194;-70
2021/01/26 09:25:24;;;;;;;1.87;1.30;;;;;;;17.68;45.83;155771.36;1814640;79;21765;-71
2021/01/26 09:28:06;;;;;;;2.33;1.72;;;;;;;17.19;46.43;155642.06;1788610;79;21179;-71
2021/01/26 09:30:40;;;;;;;2.42;1.32;;;;;;;17.76;45.97;155791.16;1726908;82;21379;-71
2021/01/26 09:33:23;;;;;;;3.05;1.62;;;;;;;18.01;45.29;155857.08;1707554;84;21874;-71
2021/01/26 09:36:04;;;;;;;1.87;1.40;;;;;;;17.51;45.76;155725.19;1773709;80;21238;-71
2021/01/26 09:38:41;;;;;;;2.27;1.60;;;;;;;17.82;46.35;155808.31;1775728;79;21725;-71
2021/01/26 09:41:24;;;;;;;2.35;1.75;;;;;;;17.57;46.24;155742.34;1736755;82;21261;-71
2021/01/26 09:44:11;;;;;;;3.15;1.80;;;;;;;17.57;46.44;155742.34;1773699;81;21211;-71
2021/01/26 09:46:51;;;;;;;1.17;1.02;;;;;;;18.47;46.24;155981.19;1734453;82;21487;-71
2021/01/26 09:49:27;;;;;;;3.75;1.80;;;;;;;16.86;46.74;155553.70;1773817;81;21211;-71
2021/01/26 09:52:07;;;;;;;3.87;1.80;;;;;;;18.12;45.81;155888.75;1775615;79;21265;-71
2021/01/26 09:54:41;;;;;;;3.83;1.80;;;;;;;18.17;45.66;155901.97;1763885;80;21171;-71
2021/01/26 09:57:18;;;;;;;2.60;1.47;;;;;;;17.23;46.51;155652.62;1788851;79;21186;-70
2021/01/26 09:59:51;;;;;;;2.30;1.57;;;;;;;18.28;45.36;155931.05;1786465;79;21273;-71
2021/01/26 10:02:23;;;;;;;4.40;2.00;;;;;;;17.82;45.89;155808.31;1781060;79;21312;-70
2021/01/26 10:04:56;;;;;;;1.70;1.57;;;;;;;18.66;45.13;156030.03;1780501;79;21157;-71
2021/01/26 10:07:30;;;;;;;1.95;1.45;;;;;;;18.29;44.77;155933.69;1806887;79;21187;-71
2021/01/26 10:10:21;;;;;;;3.27;1.70;;;;;;;17.95;45.84;155842.56;1805314;79;21183;-71
2021/01/26 10:12:53;;;;;;;2.85;1.47;;;;;;;17.95;45.90;155842.56;1805675;79;21198;-70
2021/01/26 10:15:39;;;;;;;2.77;1.65;;;;;;;17.77;45.79;155795.09;1805228;79;21271;-71
2021/01/26 10:18:16;;;;;;;3.37;1.87;;;;;;;18.13;45.08;155890.09;1775421;79;21170;-71
2021/01/26 10:20:57;;;;;;;2.92;2.12;;;;;;;17.75;45.99;155789.81;1763827;81;21198;-71
2021/01/26 10:23:44;;;;;;;2.37;1.62;;;;;;;18.14;45.88;155892.73;1736747;82;21215;-71
2021/01/26 10:26:24;;;;;;;3.37;1.37;;;;;;;18.55;45.14;156001.00;1804791;79;21260;-69
2021/01/26 10:29:14;;;;;;;1.80;1.30;;;;;;;18.52;45.19;155994.41;1787788;79;21162;-71
2021/01/26 10:31:59;;;;;;;3.42;2.02;;;;;;;17.75;45.75;155789.81;1789469;79;21170;-70
2021/01/26 10:34:44;;;;;;;1.90;1.57;;;;;;;18.11;45.68;155884.81;1795802;79;21230;-70
2021/01/26 10:37:30;;;;;;;2.37;1.75;;;;;;;18.58;45.12;156008.94;1819491;79;21167;-70
2021/01/26 10:40:32;;;;;;;2.52;1.85;;;;;;;18.89;45.71;156092.12;1800732;79;21150;-70
2021/01/26 10:43:12;;;;;;;2.80;1.70;;;;;;;18.52;44.62;155993.06;1749927;82;21193;-71
2021/01/26 10:45:52;;;;;;;2.00;1.50;;;;;;;18.32;45.18;155940.28;1750165;82;21261;-70
2021/01/26 10:48:36;;;;;;;3.42;2.37;;;;;;;18.18;45.78;155903.27;1723533;82;21248;-79
2021/01/26 10:51:30;;;;;;;3.25;2.22;;;;;;;19.36;45.59;156217.62;1720497;82;21225;-76
2021/01/26 10:54:05;;;;;;;3.12;1.80;;;;;;;19.99;44.10;156384.19;1722322;82;21192;-75
2021/01/26 10:56:38;;;;;;;3.92;1.85;;;;;;;19.87;43.72;156351.06;1721311;82;21170;-74
2021/01/26 10:59:10;;;;;;;3.42;1.80;;;;;;;20.06;43.66;156404.02;1761767;81;21333;-74
2021/01/26 11:01:43;;;;;;;3.00;2.00;;;;;;;19.84;44.40;156344.47;1750280;82;21165;-74
2021/01/26 11:04:17;;;;;;;3.35;1.95;;;;;;;19.96;44.94;156376.25;1749738;82;21819;-73
2021/01/26 11:06:50;;;;;;;2.08;1.52;;;;;;;20.08;44.36;156407.97;1750038;82;21217;-73
2021/01/26 11:09:22;;;;;;;2.58;1.77;;;;;;;20.23;44.26;156448.94;1749949;82;21162;-73
2021/01/26 11:11:54;;;;;;;2.70;2.15;;;;;;;19.82;44.05;156337.87;1750144;82;21709;-74
2021/01/26 11:14:27;;;;;;;2.52;1.82;;;;;;;20.33;43.36;156474.06;1750186;82;21305;-73
2021/01/26 11:17:01;;;;;;;3.83;1.85;;;;;;;20.70;44.16;156571.94;1750328;82;21216;-73
2021/01/26 11:19:33;;;;;;;2.20;1.80;;;;;;;20.02;43.72;156392.13;1737606;82;21255;-73
2021/01/26 11:22:06;;;;;;;3.95;2.55;;;;;;;20.02;44.74;156392.13;1720285;83;21253;-73
2021/01/26 11:24:39;;;;;;;5.17;1.85;;;;;;;20.12;44.37;156418.56;1733862;82;21196;-73
2021/01/26 11:27:12;;;;;;;2.42;1.87;;;;;;;20.22;44.21;156445.00;1748721;82;21407;-73
2021/01/26 11:29:44;;;;;;;2.05;1.67;;;;;;;19.94;44.33;156370.91;1744448;82;21276;-73
2021/01/26 11:32:18;;;;;;;3.25;1.77;;;;;;;20.35;44.09;156479.38;1740022;82;21260;-73
2021/01/26 11:34:51;;;;;;;3.17;2.02;;;;;;;20.25;43.62;156454.23;1714855;83;21391;-73
2021/01/26 11:37:23;;;;;;;2.98;1.67;;;;;;;20.03;43.93;156396.08;1717691;82;21340;-73
2021/01/26 11:39:55;;;;;;;2.65;1.65;;;;;;;20.12;44.24;156418.56;1722993;81;21343;-73
2021/01/26 11:42:28;;;;;;;6.10;1.80;;;;;;;20.45;45.20;156507.11;1715363;82;21343;-73
2021/01/26 11:45:00;;;;;;;2.08;1.80;;;;;;;20.11;43.56;156415.91;1716735;82;21713;-73
2021/01/26 11:47:33;;;;;;;2.80;1.72;;;;;;;20.00;43.65;156386.84;1729383;81;21168;-72
2021/01/26 11:50:12;;;;;;;3.77;1.90;;;;;;;19.98;43.92;156380.19;1744448;82;21181;-73
2021/01/26 11:52:44;;;;;;;2.50;1.92;;;;;;;20.19;43.10;156437.05;1753590;81;21310;-73
2021/01/26 11:55:23;;;;;;;2.35;1.55;;;;;;;20.68;43.36;156566.64;1746574;82;21325;-73
2021/01/26 11:57:56;;;;;;;3.25;1.87;;;;;;;20.49;42.63;156517.70;1756837;81;21896;-73
2021/01/26 12:00:31;;;;;;;3.12;1.77;;;;;;;19.84;44.53;156344.47;1742111;82;21440;-73
2021/01/26 12:03:04;;;;;;;2.08;1.62;;;;;;;19.69;44.24;156303.52;1728603;82;21765;-73
2021/01/26 12:05:39;;;;;;;2.30;1.70;;;;;;;20.06;44.47;156402.67;1730778;82;21371;-73
2021/01/26 12:08:12;;;;;;;3.62;1.70;;;;;;;20.70;43.59;156571.94;1715528;82;21364;-73
2021/01/26 12:10:46;;;;;;;2.58;1.52;;;;;;;20.58;42.59;156540.19;1728601;83;21329;-73
2021/01/26 12:13:19;;;;;;;2.20;1.65;;;;;;;20.82;42.80;156603.73;1744432;82;21181;-73
2021/01/26 12:15:51;;;;;;;1.62;1.47;;;;;;;21.37;43.02;156751.89;1702815;83;21393;-73
2021/01/26 12:18:24;;;;;;;2.37;1.80;;;;;;;21.08;42.60;156675.12;1736547;82;21372;-73
2021/01/26 12:20:56;;;;;;;1.92;1.35;;;;;;;20.78;42.03;156593.13;1736560;82;21365;-73
2021/01/26 12:23:29;;;;;;;2.90;2.00;;;;;;;20.61;42.74;156548.09;1736615;82;21278;-73
2021/01/26 12:26:03;;;;;;;2.60;1.77;;;;;;;20.63;42.96;156554.75;1736514;82;21892;-73
2021/01/26 12:28:36;;;;;;;4.47;2.00;;;;;;;20.86;43.27;156614.28;1757219;80;21862;-73